Time;durP1;ratioP1;P1;durP2;ratioP2;P2;SDS_P1;SDS_P2;PMS_P1;PMS_P2;Temp;Humidity;BMP_temperature;BMP_pressure;BME280_temperature;BME280_humidity;BME280_pressure;Samples;Min_cycle;Max_cycle;Signal;HPM_P1;HPM_P2
2022/02/11 00:01:46;;;;;;;0.90;0.60;;;4.50;99.90;;;;;;5005464;28;20481;-72
2022/02/11 00:04:43;;;;;;;0.70;0.47;;;4.60;99.90;;;;;;5011109;28;20958;-71
2022/02/11 00:07:01;;;;;;;0.70;0.50;;;4.60;99.90;;;;;;5012945;28;21250;-72
2022/02/11 00:09:27;;;;;;;0.70;0.50;;;4.60;99.90;;;;;;5015035;28;20446;-72
2022/02/11 00:11:55;;;;;;;0.70;0.50;;;4.60;99.90;;;;;;4997602;28;20427;-71
2022/02/11 00:14:21;;;;;;;0.70;0.47;;;4.60;99.90;;;;;;5015268;28;20240;-72
2022/02/11 00:16:47;;;;;;;0.70;0.50;;;4.60;99.90;;;;;;5014996;28;20944;-71
2022/02/11 00:19:12;;;;;;;0.70;0.50;;;4.60;99.90;;;;;;5015054;28;20446;-70
2022/02/11 00:21:39;;;;;;;0.70;0.50;;;4.60;99.90;;;;;;5018958;28;20172;-70
2022/02/11 00:24:05;;;;;;;0.70;0.40;;;4.60;99.90;;;;;;5015156;28;20228;-71
2022/02/11 00:26:34;;;;;;;0.70;0.40;;;4.60;99.90;;;;;;5014754;28;20983;-70
2022/02/11 00:30:07;;;;;;;0.70;0.50;;;4.50;99.90;;;;;;5014901;28;20169;-69
2022/02/11 00:34:50;;;;;;;0.70;0.40;;;4.50;99.90;;;;;;5014845;28;20943;-69
2022/02/11 00:37:22;;;;;;;0.70;0.50;;;4.50;99.90;;;;;;5015007;28;20549;-70
2022/02/11 01:03:59;;;;;;;0.70;0.50;;;4.00;99.90;;;;;;5014067;28;21113;-69
2022/02/11 01:06:26;;;;;;;0.70;0.40;;;3.90;99.90;;;;;;5013925;28;20426;-70
2022/02/11 01:08:53;;;;;;;0.70;0.50;;;3.90;99.90;;;;;;5014252;28;20840;-72
2022/02/11 01:11:26;;;;;;;0.70;0.50;;;3.80;99.90;;;;;;5014477;28;20438;-72
2022/02/11 01:13:51;;;;;;;0.70;0.50;;;3.70;99.90;;;;;;5013144;28;20437;-72
2022/02/11 01:16:23;;;;;;;0.70;0.50;;;3.70;99.90;;;;;;5014032;28;20664;-71
2022/02/11 01:18:57;;;;;;;0.70;0.47;;;3.60;99.90;;;;;;5012891;28;20176;-71
2022/02/11 01:21:32;;;;;;;0.70;0.50;;;3.60;99.90;;;;;;5014498;28;20808;-72
2022/02/11 01:24:12;;;;;;;0.70;0.50;;;3.50;99.90;;;;;;5016854;28;20438;-69
2022/02/11 01:26:52;;;;;;;0.70;0.50;;;3.50;99.90;;;;;;5013776;28;20939;-69
2022/02/11 01:29:48;;;;;;;0.70;0.50;;;3.40;99.90;;;;;;5013793;28;20545;-70
2022/02/11 01:32:30;;;;;;;0.70;0.50;;;3.40;99.90;;;;;;5007396;28;20923;-71
2022/02/11 01:35:18;;;;;;;0.70;0.40;;;3.40;99.90;;;;;;5013658;28;20510;-71
2022/02/11 01:38:04;;;;;;;1.07;0.97;;;3.40;99.90;;;;;;5013892;28;20956;-71
2022/02/11 01:41:32;;;;;;;0.70;0.50;;;3.40;99.90;;;;;;5000745;28;20447;-71
2022/02/11 01:46:48;;;;;;;0.70;0.50;;;3.20;99.90;;;;;;5013141;28;20429;-71
2022/02/11 02:24:18;;;;;;;0.70;0.50;;;3.00;99.90;;;;;;5012924;28;20466;-71
2022/02/11 02:32:32;;;;;;;0.70;0.47;;;3.00;99.90;;;;;;5013013;28;20195;-70
2022/02/11 02:35:10;;;;;;;0.70;0.40;;;3.00;99.90;;;;;;5012228;28;20420;-71
2022/02/11 02:57:11;;;;;;;0.70;0.50;;;2.90;99.90;;;;;;5012531;28;20581;-71
2022/02/11 03:14:25;;;;;;;0.70;0.50;;;2.90;99.90;;;;;;5012390;28;20771;-71
2022/02/11 04:21:05;;;;;;;0.70;0.40;;;3.10;99.90;;;;;;5019734;28;20494;-70
2022/02/11 04:55:27;;;;;;;1.50;1.40;;;4.00;99.90;;;;;;5014148;28;20426;-71
2022/02/11 05:00:40;;;;;;;3.03;2.10;;;4.20;99.90;;;;;;5016548;28;20477;-70
2022/02/11 05:03:06;;;;;;;5.37;2.30;;;4.20;99.90;;;;;;5011010;28;20431;-70
2022/02/11 05:05:48;;;;;;;0.70;0.40;;;4.20;99.90;;;;;;5014256;28;20776;-71
2022/02/11 05:08:22;;;;;;;0.70;0.50;;;4.10;99.90;;;;;;5014290;28;20427;-71
2022/02/11 05:10:49;;;;;;;1.23;1.13;;;4.10;99.90;;;;;;5014127;28;20816;-70
2022/02/11 05:13:16;;;;;;;0.90;0.77;;;4.10;99.90;;;;;;5014109;28;20507;-70
2022/02/11 05:15:42;;;;;;;2.10;2.00;;;4.10;99.90;;;;;;4996127;28;20507;-71
2022/02/11 05:18:08;;;;;;;0.70;0.47;;;4.20;99.90;;;;;;5013847;28;20462;-69
2022/02/11 05:20:34;;;;;;;0.70;0.50;;;4.30;99.90;;;;;;5013730;28;20470;-72
2022/02/11 05:23:07;;;;;;;0.70;0.50;;;4.30;99.90;;;;;;5014398;28;20888;-72
2022/02/11 05:25:34;;;;;;;0.70;0.50;;;4.40;99.90;;;;;;5013685;28;20425;-70
2022/02/11 05:28:00;;;;;;;0.70;0.50;;;4.40;99.90;;;;;;5013843;28;20427;-70
2022/02/11 05:30:26;;;;;;;0.70;0.40;;;4.50;99.90;;;;;;5013711;28;20439;-70
2022/02/11 05:32:51;;;;;;;3.70;2.30;;;4.50;99.90;;;;;;5013835;28;20183;-71
2022/02/11 05:35:17;;;;;;;0.70;0.60;;;4.50;99.90;;;;;;5012357;28;20481;-71
2022/02/11 05:37:42;;;;;;;2.50;1.97;;;4.50;99.90;;;;;;5012840;28;20199;-71
2022/02/11 05:40:08;;;;;;;1.30;0.77;;;4.50;99.90;;;;;;5013129;28;20188;-71
2022/02/11 05:42:34;;;;;;;0.70;0.70;;;4.50;99.90;;;;;;5013106;28;20180;-71
2022/02/11 05:44:59;;;;;;;0.70;0.40;;;4.50;99.90;;;;;;5013555;28;20784;-71
2022/02/11 05:47:25;;;;;;;0.70;0.47;;;4.50;99.90;;;;;;5012869;28;20168;-70
2022/02/11 05:49:50;;;;;;;0.70;0.50;;;4.50;99.90;;;;;;5013758;28;21371;-71
2022/02/11 05:52:16;;;;;;;0.70;0.50;;;4.50;99.90;;;;;;5013585;28;20255;-71
2022/02/11 05:54:42;;;;;;;0.70;0.50;;;4.50;99.90;;;;;;4995783;28;20175;-71
2022/02/11 05:57:08;;;;;;;0.70;0.60;;;4.60;99.90;;;;;;4995454;28;20602;-70
2022/02/11 05:59:33;;;;;;;0.70;0.50;;;4.50;99.90;;;;;;5012930;28;20188;-70
2022/02/11 06:01:59;;;;;;;0.70;0.50;;;4.60;99.90;;;;;;5013421;28;20450;-70
2022/02/11 06:04:24;;;;;;;0.70;0.50;;;4.70;99.90;;;;;;5012651;28;20176;-70
2022/02/11 06:06:51;;;;;;;0.70;0.50;;;4.70;99.90;;;;;;5012833;28;20595;-71
2022/02/11 06:09:18;;;;;;;0.73;0.70;;;4.80;99.90;;;;;;5012564;28;20601;-71
2022/02/11 06:11:44;;;;;;;0.70;0.60;;;4.80;99.90;;;;;;5012966;28;20515;-71
2022/02/11 06:14:10;;;;;;;0.70;0.50;;;4.90;99.90;;;;;;5012994;28;20462;-71
2022/02/11 06:16:35;;;;;;;0.70;0.50;;;4.80;99.90;;;;;;4994826;28;20457;-71
2022/02/11 06:19:01;;;;;;;0.70;0.50;;;4.90;99.90;;;;;;5012468;28;20275;-72
2022/02/11 06:21:26;;;;;;;0.70;0.50;;;4.90;99.90;;;;;;5013051;28;20553;-71
2022/02/11 06:23:55;;;;;;;0.80;0.80;;;4.90;99.90;;;;;;5012924;28;20540;-70
2022/02/11 06:26:22;;;;;;;0.70;0.50;;;5.00;99.90;;;;;;5012239;28;20199;-70
2022/02/11 06:28:49;;;;;;;0.70;0.40;;;5.00;99.90;;;;;;5012249;28;20420;-70
2022/02/11 06:31:14;;;;;;;0.70;0.47;;;5.10;99.90;;;;;;5012694;28;20435;-70
2022/02/11 06:33:40;;;;;;;0.70;0.50;;;5.10;99.90;;;;;;5012765;28;20438;-70
2022/02/11 06:36:05;;;;;;;0.70;0.70;;;5.20;99.90;;;;;;5012323;28;20184;-72
2022/02/11 06:38:31;;;;;;;2.50;1.47;;;5.20;99.90;;;;;;5011965;28;20192;-70
2022/02/11 06:40:57;;;;;;;0.70;0.50;;;5.20;99.90;;;;;;5012471;28;20240;-70
2022/02/11 06:43:22;;;;;;;0.70;0.50;;;5.30;99.90;;;;;;5012375;28;20228;-70
2022/02/11 06:45:48;;;;;;;1.27;1.17;;;5.30;99.90;;;;;;5012097;28;20422;-70
2022/02/11 06:48:16;;;;;;;0.70;0.50;;;5.30;99.90;;;;;;5012628;28;20263;-70
2022/02/11 06:50:42;;;;;;;0.70;0.43;;;5.30;99.90;;;;;;5012193;28;20199;-70
2022/02/11 06:53:09;;;;;;;0.70;0.50;;;5.30;99.90;;;;;;5012627;28;20434;-70
2022/02/11 06:55:35;;;;;;;0.70;0.50;;;5.40;99.90;;;;;;5011738;28;20419;-70
2022/02/11 06:58:01;;;;;;;0.80;0.60;;;5.40;99.90;;;;;;4994480;28;20443;-70
2022/02/11 07:00:27;;;;;;;0.70;0.50;;;5.40;99.90;;;;;;5011842;28;20968;-70
2022/02/11 07:02:52;;;;;;;0.87;0.77;;;5.50;99.90;;;;;;5012301;28;20192;-70
2022/02/11 07:05:19;;;;;;;0.70;0.50;;;5.50;99.90;;;;;;5012198;28;20195;-71
2022/02/11 07:07:45;;;;;;;0.70;0.50;;;5.50;99.90;;;;;;5012101;28;20173;-70
2022/02/11 07:10:11;;;;;;;0.70;0.70;;;5.50;99.90;;;;;;5010842;28;20439;-70
2022/02/11 07:12:37;;;;;;;0.70;0.40;;;5.60;99.90;;;;;;5011977;28;20172;-70
2022/02/11 07:15:02;;;;;;;0.70;0.50;;;5.60;99.90;;;;;;5011606;28;20920;-71
2022/02/11 07:17:29;;;;;;;0.70;0.50;;;5.60;99.90;;;;;;5010605;28;20207;-72
2022/02/11 07:19:55;;;;;;;0.70;0.50;;;5.70;99.90;;;;;;5012004;28;20199;-72
2022/02/11 07:22:20;;;;;;;0.70;0.50;;;5.70;99.90;;;;;;5012156;28;20415;-70
2022/02/11 07:24:48;;;;;;;0.70;0.47;;;5.70;99.90;;;;;;5011515;28;20168;-70
2022/02/11 07:27:14;;;;;;;0.70;0.50;;;5.80;99.90;;;;;;5011671;28;20185;-71
2022/02/11 07:29:40;;;;;;;0.70;0.50;;;5.80;99.90;;;;;;5011703;28;20458;-71
2022/02/11 07:32:05;;;;;;;0.70;0.50;;;5.90;99.90;;;;;;5012028;28;20202;-72
2022/02/11 07:34:31;;;;;;;0.70;0.50;;;5.90;99.90;;;;;;5011273;28;20177;-72
2022/02/11 07:36:58;;;;;;;5.90;1.00;;;5.90;99.90;;;;;;4993360;28;20203;-72
2022/02/11 07:39:23;;;;;;;0.70;0.70;;;6.00;99.90;;;;;;5011651;28;20188;-72
2022/02/11 07:41:49;;;;;;;0.97;0.87;;;6.00;99.90;;;;;;4993737;28;20785;-71
2022/02/11 07:44:14;;;;;;;0.70;0.70;;;6.00;99.90;;;;;;5011387;28;20186;-70
2022/02/11 07:46:40;;;;;;;0.70;0.50;;;6.00;99.90;;;;;;5011171;28;20543;-71
2022/02/11 07:49:05;;;;;;;1.53;1.43;;;6.10;99.90;;;;;;5011617;28;20574;-70
2022/02/11 07:51:31;;;;;;;0.70;0.60;;;6.10;99.90;;;;;;5011679;28;20517;-71
2022/02/11 07:53:58;;;;;;;0.70;0.60;;;6.20;99.90;;;;;;5011375;28;20207;-70
2022/02/11 07:56:24;;;;;;;0.70;0.40;;;6.30;99.90;;;;;;4993739;28;20172;-71
2022/02/11 07:58:51;;;;;;;0.70;0.50;;;6.30;99.90;;;;;;5011676;28;20965;-71
2022/02/11 08:01:19;;;;;;;0.70;0.40;;;6.40;99.90;;;;;;5011535;28;20255;-70
2022/02/11 08:03:45;;;;;;;0.70;0.50;;;6.50;99.90;;;;;;5009822;28;20795;-71
2022/02/11 08:06:11;;;;;;;0.70;0.47;;;6.60;99.90;;;;;;5011118;28;20569;-73
2022/02/11 08:08:37;;;;;;;1.30;1.20;;;6.60;99.90;;;;;;5011807;28;20502;-71
2022/02/11 08:11:02;;;;;;;0.70;0.50;;;6.70;99.90;;;;;;5011261;28;20681;-71
2022/02/11 08:13:28;;;;;;;1.93;1.83;;;6.70;99.90;;;;;;5010598;28;20318;-72
2022/02/11 08:15:54;;;;;;;0.70;0.50;;;6.90;99.90;;;;;;5010803;28;20179;-71
2022/02/11 08:18:20;;;;;;;0.70;0.50;;;7.50;99.90;;;;;;5010003;28;20200;-71
2022/02/11 08:20:45;;;;;;;0.70;0.50;;;8.10;99.90;;;;;;5011280;28;20453;-71
2022/02/11 08:23:11;;;;;;;0.70;0.50;;;8.40;99.90;;;;;;5010964;28;20172;-71
2022/02/11 08:25:37;;;;;;;0.70;0.50;;;8.60;99.90;;;;;;5010537;28;20190;-71
2022/02/11 08:28:02;;;;;;;0.70;0.60;;;8.60;99.90;;;;;;5013149;28;20208;-73
2022/02/11 08:30:29;;;;;;;0.70;0.50;;;8.50;99.90;;;;;;5015136;28;20200;-70
2022/02/11 08:32:55;;;;;;;0.93;0.77;;;8.50;99.90;;;;;;4997470;28;20172;-72
2022/02/11 08:35:22;;;;;;;1.33;0.87;;;8.50;99.90;;;;;;4997371;28;20477;-71
2022/02/11 08:37:47;;;;;;;1.70;1.60;;;8.60;99.90;;;;;;5014481;28;20466;-71
2022/02/11 08:40:13;;;;;;;1.93;1.83;;;8.60;99.90;;;;;;5013920;28;20522;-72
2022/02/11 08:42:38;;;;;;;0.80;0.77;;;8.70;99.90;;;;;;5014323;28;20265;-72
2022/02/11 08:45:07;;;;;;;2.40;1.27;;;8.70;99.90;;;;;;5015005;28;20239;-71
2022/02/11 08:47:32;;;;;;;1.13;1.03;;;8.80;99.90;;;;;;5014592;28;20199;-72
2022/02/11 08:50:02;;;;;;;0.70;0.50;;;8.90;99.90;;;;;;5014872;28;20461;-72
2022/02/11 08:52:27;;;;;;;0.80;0.60;;;9.00;99.90;;;;;;5013307;28;20180;-72
2022/02/11 08:54:54;;;;;;;0.80;0.60;;;9.10;99.90;;;;;;5014844;28;20424;-72
2022/02/11 08:57:20;;;;;;;0.70;0.50;;;9.10;99.90;;;;;;5014212;28;20703;-72
2022/02/11 08:59:45;;;;;;;0.70;0.50;;;9.20;99.90;;;;;;5014803;28;20423;-72
2022/02/11 09:02:11;;;;;;;3.33;3.07;;;9.40;99.90;;;;;;5014921;28;20172;-72
2022/02/11 09:04:40;;;;;;;0.70;0.50;;;9.60;99.90;;;;;;5015011;28;20191;-75
2022/02/11 09:07:07;;;;;;;1.00;0.80;;;9.70;99.90;;;;;;5013136;28;20426;-72
2022/02/11 09:09:33;;;;;;;1.07;0.97;;;9.80;99.90;;;;;;5010234;28;20432;-72
2022/02/11 09:11:58;;;;;;;0.70;0.50;;;9.70;99.90;;;;;;5009970;28;20423;-71
2022/02/11 09:14:24;;;;;;;0.70;0.50;;;9.70;99.90;;;;;;5014561;28;20415;-72
2022/02/11 09:16:49;;;;;;;0.70;0.50;;;9.80;99.90;;;;;;5012884;28;20196;-73
2022/02/11 09:19:15;;;;;;;0.70;0.50;;;10.10;99.90;;;;;;5014389;28;20603;-73
2022/02/11 09:21:41;;;;;;;0.70;0.50;;;10.50;99.90;;;;;;5014079;28;20180;-73
2022/02/11 09:24:07;;;;;;;0.80;0.70;;;10.90;99.90;;;;;;5014274;28;20766;-73
2022/02/11 09:26:33;;;;;;;2.70;1.13;;;11.10;99.90;;;;;;4996502;28;20164;-72
2022/02/11 09:29:03;;;;;;;0.70;0.60;;;11.20;99.90;;;;;;5014247;28;20482;-72
2022/02/11 09:31:29;;;;;;;0.70;0.50;;;11.30;99.90;;;;;;5013859;28;20176;-73
2022/02/11 09:34:03;;;;;;;2.60;1.47;;;11.30;99.90;;;;;;5014083;28;20403;-73
2022/02/11 09:36:29;;;;;;;0.70;0.50;;;11.50;99.90;;;;;;5013847;28;20164;-73
2022/02/11 09:38:55;;;;;;;0.70;0.50;;;12.00;99.90;;;;;;5013103;28;20395;-73
2022/02/11 09:41:23;;;;;;;0.70;0.60;;;12.20;99.90;;;;;;5013862;28;21058;-72
2022/02/11 09:43:49;;;;;;;0.70;0.60;;;12.40;99.90;;;;;;4996282;28;20411;-73
2022/02/11 09:46:17;;;;;;;0.70;0.50;;;12.50;99.90;;;;;;5013736;28;20414;-72
2022/02/11 09:48:42;;;;;;;4.80;0.83;;;12.60;99.90;;;;;;5013821;28;20490;-73
2022/02/11 09:51:08;;;;;;;1.80;1.70;;;12.50;99.90;;;;;;4995892;28;20581;-73
2022/02/11 09:53:33;;;;;;;0.70;0.50;;;12.40;99.90;;;;;;5013732;28;20263;-72
2022/02/11 09:55:59;;;;;;;0.70;0.50;;;12.20;99.90;;;;;;4996057;28;20168;-73
2022/02/11 09:58:25;;;;;;;1.07;0.63;;;12.10;99.90;;;;;;5013772;28;20294;-73
2022/02/11 10:00:52;;;;;;;0.70;0.50;;;12.00;99.90;;;;;;5013395;28;20184;-72
2022/02/11 10:03:27;;;;;;;0.70;0.50;;;11.90;99.90;;;;;;5013443;28;20176;-73
2022/02/11 10:06:00;;;;;;;4.60;0.90;;;12.10;99.90;;;;;;5013299;28;20504;-73
2022/02/11 10:08:29;;;;;;;0.73;0.60;;;12.40;99.90;;;;;;5013549;28;20477;-73
2022/02/11 10:10:58;;;;;;;0.70;0.50;;;13.20;99.90;;;;;;5013083;28;20453;-73
2022/02/11 10:13:33;;;;;;;0.70;0.50;;;13.70;99.90;;;;;;5013392;28;20403;-73
2022/02/11 10:16:06;;;;;;;0.70;0.50;;;13.70;99.90;;;;;;5011732;28;20434;-73
2022/02/11 10:18:32;;;;;;;0.70;0.50;;;13.50;99.90;;;;;;5013079;28;20541;-73
2022/02/11 10:21:03;;;;;;;0.70;0.50;;;13.20;99.90;;;;;;4995393;28;20446;-71
2022/02/11 10:23:31;;;;;;;0.80;0.60;;;13.10;99.90;;;;;;4995686;28;20412;-73
2022/02/11 10:26:07;;;;;;;0.70;0.50;;;13.10;99.90;;;;;;5012953;28;20413;-73
2022/02/11 10:28:53;;;;;;;2.30;1.13;;;13.40;99.90;;;;;;5013149;28;20427;-72
2022/02/11 10:31:29;;;;;;;0.70;0.50;;;13.80;99.90;;;;;;5013016;28;20424;-73
2022/02/11 10:34:03;;;;;;;0.80;0.67;;;14.40;99.90;;;;;;5013100;28;20414;-73
2022/02/11 10:36:38;;;;;;;1.43;1.17;;;15.10;99.90;;;;;;4995045;28;20411;-73
2022/02/11 10:39:25;;;;;;;0.90;0.60;;;16.00;99.60;;;;;;5012490;28;20762;-74
2022/02/11 10:41:57;;;;;;;0.80;0.60;;;16.70;96.30;;;;;;5011686;28;20415;-73
2022/02/11 10:44:29;;;;;;;0.80;0.70;;;17.40;90.10;;;;;;5012696;28;20454;-74
2022/02/11 10:46:58;;;;;;;4.30;1.00;;;17.50;84.30;;;;;;5012495;28;20415;-73
2022/02/11 10:49:41;;;;;;;1.67;0.70;;;17.30;81.90;;;;;;5012644;28;20638;-74
2022/02/11 10:52:13;;;;;;;1.50;0.90;;;17.10;81.40;;;;;;5012768;28;20877;-73
2022/02/11 10:54:40;;;;;;;0.87;0.63;;;17.20;81.30;;;;;;5012797;28;20406;-73
2022/02/11 10:57:09;;;;;;;0.70;0.50;;;17.40;78.40;;;;;;5012355;28;20439;-73
2022/02/11 10:59:36;;;;;;;8.57;2.43;;;17.30;77.80;;;;;;5012120;28;20444;-73
2022/02/11 11:02:05;;;;;;;0.70;0.50;;;17.20;77.00;;;;;;5012272;28;20421;-73
2022/02/11 11:04:31;;;;;;;0.70;0.50;;;17.60;83.50;;;;;;5011146;28;20439;-73
2022/02/11 11:06:57;;;;;;;1.37;0.87;;;18.00;80.90;;;;;;5012272;28;20814;-74
2022/02/11 11:09:26;;;;;;;0.70;0.50;;;18.40;79.30;;;;;;4994324;28;20279;-74
2022/02/11 11:11:53;;;;;;;0.80;0.80;;;18.30;77.20;;;;;;5011951;28;20419;-73
2022/02/11 11:14:21;;;;;;;0.80;0.70;;;18.10;74.90;;;;;;5011873;28;20620;-74
2022/02/11 11:16:48;;;;;;;0.70;0.50;;;17.80;75.20;;;;;;5011714;28;20451;-73
2022/02/11 11:19:14;;;;;;;10.73;0.90;;;17.40;72.40;;;;;;5012011;28;20458;-74
2022/02/11 11:22:10;;;;;;;0.70;0.50;;;17.20;75.90;;;;;;5012130;28;20510;-73
2022/02/11 11:24:43;;;;;;;0.97;0.83;;;17.20;77.10;;;;;;5012154;28;20430;-73
2022/02/11 11:27:08;;;;;;;0.70;0.50;;;16.90;75.90;;;;;;5011346;28;20436;-73
2022/02/11 11:29:34;;;;;;;0.97;0.70;;;16.60;71.80;;;;;;5012226;28;20419;-73
2022/02/11 11:32:00;;;;;;;1.00;0.90;;;16.20;72.30;;;;;;5011823;28;20176;-74
2022/02/11 11:34:31;;;;;;;0.70;0.50;;;15.80;73.80;;;;;;4994089;28;20176;-74
2022/02/11 11:37:09;;;;;;;0.70;0.50;;;15.70;74.90;;;;;;5011382;28;20477;-73
2022/02/11 11:39:36;;;;;;;0.70;0.50;;;15.40;75.10;;;;;;4998263;28;20442;-74
2022/02/11 11:42:13;;;;;;;0.70;0.60;;;15.10;75.30;;;;;;5012118;28;20399;-73
2022/02/11 11:44:45;;;;;;;1.13;1.00;;;14.90;75.60;;;;;;5004476;28;20419;-73
2022/02/11 11:47:35;;;;;;;1.10;0.60;;;15.00;76.70;;;;;;5011099;28;20419;-73
2022/02/11 11:50:03;;;;;;;1.13;1.00;;;15.40;76.60;;;;;;5023318;28;20470;-73
2022/02/11 11:52:40;;;;;;;0.70;0.50;;;16.10;77.90;;;;;;5011748;28;20796;-74
2022/02/11 11:55:24;;;;;;;0.97;0.70;;;16.70;77.80;;;;;;5011717;28;20423;-74
2022/02/11 11:57:51;;;;;;;0.70;0.50;;;17.20;73.30;;;;;;4993583;28;20447;-74
2022/02/11 12:00:34;;;;;;;0.70;0.50;;;17.20;68.30;;;;;;5011565;28;20447;-74
2022/02/11 12:03:00;;;;;;;0.70;0.53;;;16.90;67.30;;;;;;5013720;28;20429;-74
2022/02/11 12:05:42;;;;;;;1.67;1.10;;;16.40;67.20;;;;;;5015695;28;20426;-73
2022/02/11 12:08:08;;;;;;;0.70;0.60;;;15.90;67.70;;;;;;5015324;28;20176;-74
2022/02/11 12:10:35;;;;;;;0.70;0.50;;;15.40;68.20;;;;;;5014939;28;20454;-74
2022/02/11 12:13:01;;;;;;;1.00;0.83;;;15.00;66.60;;;;;;5015592;28;20172;-74
2022/02/11 12:15:26;;;;;;;1.43;0.70;;;14.40;67.00;;;;;;5015661;28;20430;-74
2022/02/11 12:17:54;;;;;;;0.70;0.50;;;13.90;68.00;;;;;;5015320;28;20509;-73
2022/02/11 12:20:20;;;;;;;0.70;0.50;;;13.50;69.30;;;;;;5015323;28;20195;-73
2022/02/11 12:27:20;;;;;;;0.70;0.50;;;13.10;70.70;;;;;;5015086;28;20423;-73
2022/02/11 12:28:20;;;;;;;0.70;0.50;;;12.40;71.30;;;;;;5015394;28;20945;-73
2022/02/11 12:30:47;;;;;;;0.70;0.50;;;12.00;72.40;;;;;;5015003;28;20442;-73
2022/02/11 12:33:12;;;;;;;0.70;0.60;;;11.80;73.80;;;;;;5015410;28;20407;-73
2022/02/11 12:35:38;;;;;;;0.70;0.50;;;11.50;75.60;;;;;;5015323;28;20417;-72
2022/02/11 12:38:04;;;;;;;1.37;0.97;;;11.20;75.70;;;;;;5014857;28;20239;-73
2022/02/11 12:40:35;;;;;;;0.70;0.50;;;10.90;76.30;;;;;;4997217;28;20468;-73
2022/02/11 12:43:03;;;;;;;0.70;0.60;;;10.60;77.70;;;;;;5014153;28;20415;-73
2022/02/11 12:45:40;;;;;;;0.70;0.50;;;10.50;79.50;;;;;;5014753;28;20451;-73
2022/02/11 12:48:10;;;;;;;0.70;0.50;;;10.40;79.80;;;;;;5014847;28;20445;-73
2022/02/11 12:50:54;;;;;;;0.70;0.50;;;10.20;80.60;;;;;;5014820;28;20446;-73
2022/02/11 12:53:20;;;;;;;0.70;0.50;;;10.20;82.00;;;;;;5014968;28;20757;-73
2022/02/11 12:55:52;;;;;;;0.70;0.50;;;10.30;84.20;;;;;;5014606;28;20423;-73
2022/02/11 12:58:20;;;;;;;0.70;0.50;;;11.20;84.80;;;;;;5014735;28;20446;-73
2022/02/11 13:00:48;;;;;;;0.70;0.50;;;12.60;83.60;;;;;;5014699;28;20419;-73
2022/02/11 13:03:15;;;;;;;0.70;0.50;;;14.60;81.70;;;;;;5014599;28;20792;-73
2022/02/11 13:05:43;;;;;;;0.70;0.50;;;16.60;74.40;;;;;;5013257;28;20415;-73
2022/02/11 13:08:10;;;;;;;0.90;0.90;;;18.30;66.70;;;;;;5013784;28;20514;-73
2022/02/11 13:10:38;;;;;;;0.70;0.50;;;19.90;59.80;;;;;;5014614;28;20419;-74
2022/02/11 13:13:12;;;;;;;0.80;0.60;;;21.20;56.60;;;;;;4997007;28;20411;-73
2022/02/11 13:15:38;;;;;;;1.87;0.90;;;22.40;53.00;;;;;;5014550;28;20414;-74
2022/02/11 13:18:19;;;;;;;5.10;0.90;;;23.40;51.10;;;;;;5014016;28;20458;-74
2022/02/11 13:20:46;;;;;;;2.20;1.00;;;23.90;49.00;;;;;;5014519;28;20931;-74
2022/02/11 13:23:15;;;;;;;0.80;0.50;;;23.90;46.60;;;;;;5014360;28;20400;-74
2022/02/11 13:25:42;;;;;;;1.50;0.80;;;23.90;46.30;;;;;;5013397;28;20914;-74
2022/02/11 13:28:15;;;;;;;1.40;0.87;;;24.40;45.90;;;;;;5013444;28;20451;-74
2022/02/11 13:30:45;;;;;;;0.80;0.60;;;24.80;45.10;;;;;;5013925;28;20986;-73
2022/02/11 13:33:34;;;;;;;1.10;0.70;;;25.40;44.40;;;;;;5014147;28;20413;-74
2022/02/11 13:36:05;;;;;;;1.30;0.67;;;25.30;43.90;;;;;;5014336;28;20909;-73
2022/02/11 13:38:33;;;;;;;2.07;0.60;;;25.50;43.90;;;;;;5013593;28;20446;-74
2022/02/11 13:41:12;;;;;;;1.63;0.80;;;25.80;42.60;;;;;;5012721;28;20489;-74
2022/02/11 13:43:53;;;;;;;0.80;0.60;;;26.30;42.50;;;;;;5013964;28;20900;-74
2022/02/11 13:46:27;;;;;;;1.30;1.20;;;26.40;42.80;;;;;;5013496;28;20529;-74
2022/02/11 13:48:55;;;;;;;0.80;0.60;;;26.80;42.10;;;;;;5013930;28;20718;-74
2022/02/11 13:51:21;;;;;;;1.10;0.70;;;27.30;41.70;;;;;;5013250;28;20442;-74
2022/02/11 13:53:52;;;;;;;0.80;0.60;;;27.80;41.60;;;;;;5013856;28;20422;-74
2022/02/11 13:56:39;;;;;;;1.43;1.33;;;28.10;40.50;;;;;;5013472;28;20494;-74
2022/02/11 13:59:16;;;;;;;0.80;0.60;;;27.80;40.00;;;;;;5012259;28;20940;-74
2022/02/11 14:01:46;;;;;;;1.40;0.80;;;26.70;39.90;;;;;;5013304;28;20849;-72
2022/02/11 14:04:14;;;;;;;0.80;0.50;;;25.00;39.90;;;;;;5013251;28;20431;-73
2022/02/11 14:06:52;;;;;;;0.80;0.70;;;23.70;40.10;;;;;;5013311;28;20427;-72
2022/02/11 14:09:41;;;;;;;1.30;1.00;;;22.40;40.50;;;;;;5013290;28;20445;-72
2022/02/11 14:12:13;;;;;;;2.10;0.77;;;21.80;41.30;;;;;;5013150;28;20469;-73
2022/02/11 14:14:59;;;;;;;0.80;0.63;;;22.00;41.70;;;;;;5012718;28;20422;-74
2022/02/11 14:17:26;;;;;;;0.80;0.70;;;22.90;42.30;;;;;;5013043;28;20455;-73
2022/02/11 14:19:52;;;;;;;2.30;0.60;;;23.60;41.40;;;;;;5012987;28;20585;-74
2022/02/11 14:22:18;;;;;;;0.80;0.50;;;24.20;41.00;;;;;;5013195;28;20486;-73
2022/02/11 14:24:44;;;;;;;0.90;0.80;;;24.70;41.20;;;;;;5012547;28;20203;-73
2022/02/11 14:27:10;;;;;;;0.80;0.53;;;25.10;39.70;;;;;;5012303;28;20189;-72
2022/02/11 14:29:36;;;;;;;0.90;0.70;;;25.60;39.10;;;;;;5013058;28;20435;-73
2022/02/11 14:32:03;;;;;;;0.80;0.50;;;25.90;38.90;;;;;;5013231;28;20497;-73
2022/02/11 14:34:28;;;;;;;0.70;0.50;;;26.10;38.30;;;;;;5012922;28;20199;-73
2022/02/11 14:36:54;;;;;;;1.10;1.00;;;26.30;38.60;;;;;;5012376;28;20450;-73
2022/02/11 14:39:19;;;;;;;3.90;0.90;;;26.40;37.60;;;;;;5012527;28;20196;-73
2022/02/11 14:41:47;;;;;;;0.80;0.60;;;26.50;37.40;;;;;;5012932;28;20164;-74
2022/02/11 14:44:18;;;;;;;0.80;0.60;;;26.50;37.20;;;;;;5012962;28;20546;-73
2022/02/11 14:46:45;;;;;;;2.60;1.20;;;26.60;38.30;;;;;;5012691;28;20392;-73
2022/02/11 14:49:11;;;;;;;0.80;0.50;;;26.80;37.50;;;;;;4994484;28;20426;-73
2022/02/11 14:51:37;;;;;;;0.87;0.70;;;26.90;37.30;;;;;;5012491;28;20423;-73
2022/02/11 14:54:11;;;;;;;0.80;0.60;;;27.00;37.10;;;;;;5012829;28;20175;-73
2022/02/11 14:56:39;;;;;;;0.80;0.50;;;27.10;36.70;;;;;;5012302;28;20896;-75
2022/02/11 14:59:08;;;;;;;1.73;1.07;;;26.70;35.50;;;;;;5012527;28;20404;-74
2022/02/11 15:01:37;;;;;;;1.90;1.03;;;25.40;35.00;;;;;;5012389;28;20770;-74
2022/02/11 15:04:03;;;;;;;0.77;0.50;;;23.90;35.60;;;;;;5012346;28;20450;-73
2022/02/11 15:06:29;;;;;;;0.70;0.50;;;22.50;36.40;;;;;;5012151;28;20531;-73
2022/02/11 15:08:54;;;;;;;0.87;0.60;;;21.20;37.10;;;;;;5012538;28;20950;-73
2022/02/11 15:11:20;;;;;;;0.93;0.80;;;20.00;38.00;;;;;;5011889;28;20563;-73
2022/02/11 15:13:45;;;;;;;2.50;0.83;;;18.90;39.80;;;;;;5012232;28;20522;-73
2022/02/11 15:16:11;;;;;;;0.70;0.50;;;17.90;40.30;;;;;;5012308;28;20746;-73
2022/02/11 15:18:37;;;;;;;1.57;1.07;;;17.10;41.30;;;;;;5012182;28;20212;-72
2022/02/11 15:21:06;;;;;;;0.70;0.50;;;16.50;41.90;;;;;;5011890;28;20200;-72
2022/02/11 15:23:36;;;;;;;0.80;0.60;;;16.00;42.60;;;;;;5012010;28;20407;-73
2022/02/11 15:26:05;;;;;;;0.70;0.50;;;15.60;43.50;;;;;;5012042;28;20431;-73
2022/02/11 15:28:32;;;;;;;2.03;1.93;;;15.20;44.20;;;;;;5012260;28;20411;-73
2022/02/11 15:30:58;;;;;;;4.40;1.63;;;14.80;45.00;;;;;;5011791;28;20438;-73
2022/02/11 15:33:23;;;;;;;11.13;2.10;;;14.30;45.70;;;;;;5011889;28;20789;-73
2022/02/11 15:35:49;;;;;;;0.83;0.83;;;14.10;46.80;;;;;;5011897;28;20275;-73
2022/02/11 15:38:15;;;;;;;0.70;0.50;;;14.40;48.70;;;;;;5009402;28;20208;-72
2022/02/11 15:40:41;;;;;;;0.70;0.50;;;14.90;48.60;;;;;;5012060;28;20220;-73
2022/02/11 15:43:06;;;;;;;0.73;0.60;;;15.60;48.20;;;;;;5012255;28;20490;-73
2022/02/11 15:45:32;;;;;;;0.70;0.60;;;16.20;47.90;;;;;;4994416;28;20172;-74
2022/02/11 15:47:58;;;;;;;0.90;0.60;;;16.50;47.20;;;;;;5011622;28;20183;-74
2022/02/11 15:50:23;;;;;;;0.70;0.50;;;16.60;46.20;;;;;;5011773;28;20259;-74
2022/02/11 15:52:52;;;;;;;0.70;0.50;;;16.60;45.80;;;;;;4994186;28;20227;-74
2022/02/11 15:55:17;;;;;;;0.70;0.50;;;16.70;45.70;;;;;;4993785;28;20578;-74
2022/02/11 15:57:43;;;;;;;0.90;0.60;;;16.80;45.50;;;;;;5011364;28;20509;-74
2022/02/11 16:00:10;;;;;;;0.70;0.50;;;16.60;45.60;;;;;;5011356;28;20215;-74
2022/02/11 16:02:36;;;;;;;0.83;0.80;;;16.10;45.30;;;;;;5011851;28;20251;-72
2022/02/11 16:05:02;;;;;;;0.80;0.70;;;15.40;45.40;;;;;;5012000;28;20920;-72
2022/02/11 16:07:28;;;;;;;0.70;0.60;;;14.60;45.60;;;;;;5011308;28;20427;-72
2022/02/11 16:09:54;;;;;;;1.20;1.07;;;13.90;46.40;;;;;;5011773;28;20454;-72
2022/02/11 16:12:20;;;;;;;0.70;0.50;;;13.30;47.30;;;;;;5011522;28;20248;-72
2022/02/11 16:14:46;;;;;;;1.33;1.07;;;12.70;48.30;;;;;;5011480;28;20718;-72
2022/02/11 16:17:12;;;;;;;0.70;0.50;;;12.20;49.20;;;;;;5011498;28;20196;-73
2022/02/11 16:19:38;;;;;;;0.80;0.60;;;11.80;50.20;;;;;;5011367;28;20196;-73
2022/02/11 16:22:04;;;;;;;9.40;1.27;;;11.50;50.90;;;;;;5010630;28;20511;-73
2022/02/11 16:24:30;;;;;;;0.70;0.50;;;11.00;51.40;;;;;;5011499;28;20423;-73
2022/02/11 16:26:56;;;;;;;0.70;0.50;;;10.60;52.00;;;;;;5011241;28;20882;-73